sensor_id;sensor_type;location;lat;lon;timestamp;pressure;altitude;pressure_sealevel;temperature
65765;BMP180;52915;53.718;19.946;2023-07-31T00:02:38;99657.00;;;17.90
65765;BMP180;52915;53.718;19.946;2023-07-31T00:07:42;99655.60;;;17.80
65765;BMP180;52915;53.718;19.946;2023-07-31T00:12:46;99654.80;;;17.88
65765;BMP180;52915;53.718;19.946;2023-07-31T00:17:50;99649.20;;;17.84
65765;BMP180;52915;53.718;19.946;2023-07-31T00:22:54;99642.60;;;17.80
65765;BMP180;52915;53.718;19.946;2023-07-31T00:27:59;99647.20;;;17.80
65765;BMP180;52915;53.718;19.946;2023-07-31T00:33:03;99644.20;;;17.90
65765;BMP180;52915;53.718;19.946;2023-07-31T00:38:07;99649.00;;;17.80
65765;BMP180;52915;53.718;19.946;2023-07-31T00:43:12;99653.80;;;17.60
65765;BMP180;52915;53.718;19.946;2023-07-31T00:48:16;99655.60;;;17.50
65765;BMP180;52915;53.718;19.946;2023-07-31T00:53:22;99654.40;;;17.60
65765;BMP180;52915;53.718;19.946;2023-07-31T00:58:27;99645.60;;;17.70
65765;BMP180;52915;53.718;19.946;2023-07-31T01:03:31;99646.00;;;17.70
65765;BMP180;52915;53.718;19.946;2023-07-31T01:09:02;99662.00;;;17.72
65765;BMP180;52915;53.718;19.946;2023-07-31T01:14:06;99669.60;;;17.60
65765;BMP180;52915;53.718;19.946;2023-07-31T01:19:14;99662.00;;;17.44
65765;BMP180;52915;53.718;19.946;2023-07-31T01:30:26;99665.00;;;17.50
65765;BMP180;52915;53.718;19.946;2023-07-31T01:35:34;99665.80;;;17.50
65765;BMP180;52915;53.718;19.946;2023-07-31T01:40:42;99660.40;;;17.50
65765;BMP180;52915;53.718;19.946;2023-07-31T01:45:46;99655.60;;;17.50
65765;BMP180;52915;53.718;19.946;2023-07-31T01:50:50;99649.80;;;17.50
65765;BMP180;52915;53.718;19.946;2023-07-31T01:55:55;99648.00;;;17.30
65765;BMP180;52915;53.718;19.946;2023-07-31T02:00:59;99646.40;;;17.30
65765;BMP180;52915;53.718;19.946;2023-07-31T02:06:04;99647.00;;;17.40
65765;BMP180;52915;53.718;19.946;2023-07-31T02:11:08;99646.80;;;17.40
65765;BMP180;52915;53.718;19.946;2023-07-31T02:16:12;99651.60;;;17.40
65765;BMP180;52915;53.718;19.946;2023-07-31T02:21:16;99649.60;;;17.48
65765;BMP180;52915;53.718;19.946;2023-07-31T02:26:21;99656.60;;;17.50
65765;BMP180;52915;53.718;19.946;2023-07-31T02:31:25;99657.20;;;17.50
65765;BMP180;52915;53.718;19.946;2023-07-31T02:36:29;99654.80;;;17.50
65765;BMP180;52915;53.718;19.946;2023-07-31T02:41:33;99642.40;;;17.50
65765;BMP180;52915;53.718;19.946;2023-07-31T02:46:38;99644.20;;;17.50
65765;BMP180;52915;53.718;19.946;2023-07-31T02:51:43;99647.60;;;17.50
65765;BMP180;52915;53.718;19.946;2023-07-31T02:56:48;99651.00;;;17.50
65765;BMP180;52915;53.718;19.946;2023-07-31T03:01:53;99654.00;;;17.50
65765;BMP180;52915;53.718;19.946;2023-07-31T03:06:57;99654.00;;;17.40
65765;BMP180;52915;53.718;19.946;2023-07-31T03:12:02;99648.00;;;17.40
65765;BMP180;52915;53.718;19.946;2023-07-31T03:17:07;99641.40;;;17.40
65765;BMP180;52915;53.718;19.946;2023-07-31T03:22:11;99653.60;;;17.40
65765;BMP180;52915;53.718;19.946;2023-07-31T03:27:15;99659.60;;;17.40
65765;BMP180;52915;53.718;19.946;2023-07-31T03:32:19;99674.80;;;17.40
65765;BMP180;52915;53.718;19.946;2023-07-31T03:37:23;99684.40;;;17.32
65765;BMP180;52915;53.718;19.946;2023-07-31T03:42:27;99678.00;;;17.20
65765;BMP180;52915;53.718;19.946;2023-07-31T03:47:31;99681.40;;;17.10
65765;BMP180;52915;53.718;19.946;2023-07-31T03:52:36;99677.20;;;17.20
65765;BMP180;52915;53.718;19.946;2023-07-31T03:57:40;99682.80;;;17.20
65765;BMP180;52915;53.718;19.946;2023-07-31T04:02:45;99681.80;;;17.30
65765;BMP180;52915;53.718;19.946;2023-07-31T04:07:49;99689.00;;;17.30
65765;BMP180;52915;53.718;19.946;2023-07-31T04:12:53;99690.80;;;17.40
65765;BMP180;52915;53.718;19.946;2023-07-31T04:17:57;99697.20;;;17.28
65765;BMP180;52915;53.718;19.946;2023-07-31T04:23:02;99706.40;;;17.30
65765;BMP180;52915;53.718;19.946;2023-07-31T04:28:06;99702.00;;;17.30
65765;BMP180;52915;53.718;19.946;2023-07-31T04:33:11;99709.40;;;17.40
65765;BMP180;52915;53.718;19.946;2023-07-31T04:38:15;99717.60;;;17.40
65765;BMP180;52915;53.718;19.946;2023-07-31T04:43:19;99722.40;;;17.40
65765;BMP180;52915;53.718;19.946;2023-07-31T04:48:24;99726.20;;;17.48
65765;BMP180;52915;53.718;19.946;2023-07-31T04:53:30;99733.20;;;17.50
65765;BMP180;52915;53.718;19.946;2023-07-31T04:58:36;99730.60;;;17.60
65765;BMP180;52915;53.718;19.946;2023-07-31T05:03:41;99731.40;;;17.80
65765;BMP180;52915;53.718;19.946;2023-07-31T05:08:45;99742.80;;;18.00
65765;BMP180;52915;53.718;19.946;2023-07-31T05:13:49;99744.20;;;18.20
65765;BMP180;52915;53.718;19.946;2023-07-31T05:18:53;99743.20;;;18.40
65765;BMP180;52915;53.718;19.946;2023-07-31T05:23:57;99747.40;;;18.60
65765;BMP180;52915;53.718;19.946;2023-07-31T05:29:02;99756.40;;;18.80
65765;BMP180;52915;53.718;19.946;2023-07-31T05:34:06;99744.80;;;18.90
65765;BMP180;52915;53.718;19.946;2023-07-31T05:39:10;99755.60;;;19.00
65765;BMP180;52915;53.718;19.946;2023-07-31T05:44:14;99753.80;;;18.90
65765;BMP180;52915;53.718;19.946;2023-07-31T05:49:18;99757.80;;;18.90
65765;BMP180;52915;53.718;19.946;2023-07-31T05:54:22;99751.00;;;19.00
65765;BMP180;52915;53.718;19.946;2023-07-31T05:59:26;99760.80;;;19.12
65765;BMP180;52915;53.718;19.946;2023-07-31T06:04:31;99753.20;;;19.30
65765;BMP180;52915;53.718;19.946;2023-07-31T06:09:36;99764.00;;;19.40
65765;BMP180;52915;53.718;19.946;2023-07-31T06:14:40;99760.20;;;19.60
65765;BMP180;52915;53.718;19.946;2023-07-31T06:19:44;99761.00;;;19.70
65765;BMP180;52915;53.718;19.946;2023-07-31T06:24:49;99760.80;;;19.80
65765;BMP180;52915;53.718;19.946;2023-07-31T06:29:53;99767.60;;;20.00
65765;BMP180;52915;53.718;19.946;2023-07-31T06:34:57;99776.40;;;20.30
65765;BMP180;52915;53.718;19.946;2023-07-31T06:40:02;99767.20;;;20.44
65765;BMP180;52915;53.718;19.946;2023-07-31T06:45:10;99767.20;;;20.50
65765;BMP180;52915;53.718;19.946;2023-07-31T06:50:14;99764.20;;;20.70
65765;BMP180;52915;53.718;19.946;2023-07-31T06:55:20;99766.20;;;20.80
65765;BMP180;52915;53.718;19.946;2023-07-31T07:00:27;99765.60;;;20.94
65765;BMP180;52915;53.718;19.946;2023-07-31T07:14:01;99754.60;;;21.96
65765;BMP180;52915;53.718;19.946;2023-07-31T07:19:05;99757.20;;;22.00
65765;BMP180;52915;53.718;19.946;2023-07-31T07:24:09;99756.80;;;22.10
65765;BMP180;52915;53.718;19.946;2023-07-31T07:29:14;99763.20;;;22.20
65765;BMP180;52915;53.718;19.946;2023-07-31T07:34:18;99766.80;;;22.50
65765;BMP180;52915;53.718;19.946;2023-07-31T07:39:22;99764.20;;;22.70
65765;BMP180;52915;53.718;19.946;2023-07-31T07:44:26;99763.00;;;22.90
65765;BMP180;52915;53.718;19.946;2023-07-31T07:49:32;99765.60;;;23.12
65765;BMP180;52915;53.718;19.946;2023-07-31T07:54:36;99765.80;;;23.34
65765;BMP180;52915;53.718;19.946;2023-07-31T07:59:41;99765.40;;;23.40
65765;BMP180;52915;53.718;19.946;2023-07-31T08:04:45;99759.60;;;23.54
65765;BMP180;52915;53.718;19.946;2023-07-31T08:09:50;99762.40;;;23.90
65765;BMP180;52915;53.718;19.946;2023-07-31T08:14:54;99760.40;;;24.10
65765;BMP180;52915;53.718;19.946;2023-07-31T08:19:58;99766.60;;;24.30
65765;BMP180;52915;53.718;19.946;2023-07-31T08:25:03;99761.80;;;24.30
65765;BMP180;52915;53.718;19.946;2023-07-31T08:30:08;99761.60;;;24.60
65765;BMP180;52915;53.718;19.946;2023-07-31T08:35:13;99763.00;;;24.80
65765;BMP180;52915;53.718;19.946;2023-07-31T08:40:17;99757.80;;;25.20
65765;BMP180;52915;53.718;19.946;2023-07-31T08:45:22;99752.60;;;25.30
65765;BMP180;52915;53.718;19.946;2023-07-31T08:50:26;99751.60;;;25.12
65765;BMP180;52915;53.718;19.946;2023-07-31T08:55:32;99752.40;;;25.10
65765;BMP180;52915;53.718;19.946;2023-07-31T09:00:38;99755.40;;;25.20
65765;BMP180;52915;53.718;19.946;2023-07-31T09:05:46;99756.00;;;25.28
65765;BMP180;52915;53.718;19.946;2023-07-31T09:10:50;99749.60;;;25.24
65765;BMP180;52915;53.718;19.946;2023-07-31T09:15:55;99755.80;;;25.40
65765;BMP180;52915;53.718;19.946;2023-07-31T09:21:05;99747.40;;;25.54
65765;BMP180;52915;53.718;19.946;2023-07-31T09:26:10;99753.60;;;25.80
65765;BMP180;52915;53.718;19.946;2023-07-31T09:31:14;99760.20;;;25.60
65765;BMP180;52915;53.718;19.946;2023-07-31T09:36:18;99759.60;;;25.32
65765;BMP180;52915;53.718;19.946;2023-07-31T09:41:23;99752.20;;;25.22
65765;BMP180;52915;53.718;19.946;2023-07-31T09:46:27;99746.00;;;25.50
65765;BMP180;52915;53.718;19.946;2023-07-31T09:51:32;99742.00;;;25.76
65765;BMP180;52915;53.718;19.946;2023-07-31T09:56:48;99749.80;;;25.80
65765;BMP180;52915;53.718;19.946;2023-07-31T10:01:54;99759.00;;;25.60
65765;BMP180;52915;53.718;19.946;2023-07-31T10:07:02;99755.80;;;25.50
65765;BMP180;52915;53.718;19.946;2023-07-31T10:12:10;99750.20;;;25.40
65765;BMP180;52915;53.718;19.946;2023-07-31T10:17:19;99743.00;;;25.40
65765;BMP180;52915;53.718;19.946;2023-07-31T10:22:25;99739.40;;;25.70
65765;BMP180;52915;53.718;19.946;2023-07-31T10:27:30;99737.40;;;25.92
65765;BMP180;52915;53.718;19.946;2023-07-31T10:32:35;99736.00;;;26.10
65765;BMP180;52915;53.718;19.946;2023-07-31T10:37:41;99736.80;;;26.20
65765;BMP180;52915;53.718;19.946;2023-07-31T10:42:55;99734.00;;;26.40
65765;BMP180;52915;53.718;19.946;2023-07-31T10:48:07;99730.80;;;26.40
65765;BMP180;52915;53.718;19.946;2023-07-31T10:53:29;99727.00;;;26.42
65765;BMP180;52915;53.718;19.946;2023-07-31T10:58:34;99720.40;;;26.60
65765;BMP180;52915;53.718;19.946;2023-07-31T11:03:43;99726.40;;;26.98
65765;BMP180;52915;53.718;19.946;2023-07-31T11:08:50;99718.80;;;26.84
65765;BMP180;52915;53.718;19.946;2023-07-31T11:13:54;99728.40;;;26.80
65765;BMP180;52915;53.718;19.946;2023-07-31T11:18:58;99721.80;;;26.70
65765;BMP180;52915;53.718;19.946;2023-07-31T11:24:04;99722.40;;;26.60
65765;BMP180;52915;53.718;19.946;2023-07-31T11:29:13;99725.80;;;26.40
65765;BMP180;52915;53.718;19.946;2023-07-31T11:34:17;99728.60;;;26.10
65765;BMP180;52915;53.718;19.946;2023-07-31T11:39:24;99720.00;;;26.10
65765;BMP180;52915;53.718;19.946;2023-07-31T11:44:39;99719.60;;;26.20
65765;BMP180;52915;53.718;19.946;2023-07-31T11:49:44;99711.60;;;26.00
65765;BMP180;52915;53.718;19.946;2023-07-31T11:54:50;99716.80;;;25.90
65765;BMP180;52915;53.718;19.946;2023-07-31T11:59:56;99711.40;;;25.70
65765;BMP180;52915;53.718;19.946;2023-07-31T12:05:01;99696.00;;;25.82
65765;BMP180;52915;53.718;19.946;2023-07-31T12:10:06;99697.00;;;26.00
65765;BMP180;52915;53.718;19.946;2023-07-31T12:15:15;99696.20;;;25.90
65765;BMP180;52915;53.718;19.946;2023-07-31T12:20:20;99689.80;;;25.70
65765;BMP180;52915;53.718;19.946;2023-07-31T12:25:30;99685.40;;;25.36
65765;BMP180;52915;53.718;19.946;2023-07-31T12:30:35;99691.60;;;24.90
65765;BMP180;52915;53.718;19.946;2023-07-31T12:35:45;99685.20;;;24.40
65765;BMP180;52915;53.718;19.946;2023-07-31T12:40:50;99682.60;;;23.90
65765;BMP180;52915;53.718;19.946;2023-07-31T12:45:55;99688.40;;;23.60
65765;BMP180;52915;53.718;19.946;2023-07-31T12:51:01;99684.80;;;23.30
65765;BMP180;52915;53.718;19.946;2023-07-31T12:56:06;99682.80;;;23.10
65765;BMP180;52915;53.718;19.946;2023-07-31T13:01:10;99678.00;;;22.90
65765;BMP180;52915;53.718;19.946;2023-07-31T13:06:15;99688.40;;;22.64
65765;BMP180;52915;53.718;19.946;2023-07-31T13:11:19;99737.60;;;22.32
65765;BMP180;52915;53.718;19.946;2023-07-31T13:16:24;99745.20;;;21.12
65765;BMP180;52915;53.718;19.946;2023-07-31T13:21:29;99751.60;;;20.30
65765;BMP180;52915;53.718;19.946;2023-07-31T13:26:34;99754.40;;;19.94
65765;BMP180;52915;53.718;19.946;2023-07-31T13:31:40;99755.20;;;19.60
65765;BMP180;52915;53.718;19.946;2023-07-31T13:36:44;99739.40;;;19.50
65765;BMP180;52915;53.718;19.946;2023-07-31T13:41:50;99724.20;;;19.40
65765;BMP180;52915;53.718;19.946;2023-07-31T13:46:55;99706.60;;;19.30
65765;BMP180;52915;53.718;19.946;2023-07-31T13:52:00;99701.60;;;19.20
65765;BMP180;52915;53.718;19.946;2023-07-31T13:57:05;99705.00;;;19.30
65765;BMP180;52915;53.718;19.946;2023-07-31T14:02:09;99693.20;;;19.40
65765;BMP180;52915;53.718;19.946;2023-07-31T14:07:13;99683.00;;;19.38
65765;BMP180;52915;53.718;19.946;2023-07-31T14:12:17;99676.40;;;19.48
65765;BMP180;52915;53.718;19.946;2023-07-31T14:17:42;99679.20;;;19.50
65765;BMP180;52915;53.718;19.946;2023-07-31T14:22:46;99675.00;;;19.50
65765;BMP180;52915;53.718;19.946;2023-07-31T14:27:51;99668.20;;;19.52
65765;BMP180;52915;53.718;19.946;2023-07-31T14:32:55;99656.00;;;19.70
65765;BMP180;52915;53.718;19.946;2023-07-31T14:38:00;99652.40;;;20.00
65765;BMP180;52915;53.718;19.946;2023-07-31T14:43:04;99649.00;;;20.14
65765;BMP180;52915;53.718;19.946;2023-07-31T14:48:09;99644.60;;;20.20
65765;BMP180;52915;53.718;19.946;2023-07-31T14:53:13;99640.60;;;20.20
65765;BMP180;52915;53.718;19.946;2023-07-31T14:58:17;99638.20;;;20.00
65765;BMP180;52915;53.718;19.946;2023-07-31T15:03:22;99641.80;;;20.00
65765;BMP180;52915;53.718;19.946;2023-07-31T15:08:26;99639.40;;;20.00
65765;BMP180;52915;53.718;19.946;2023-07-31T15:13:30;99633.40;;;20.10
65765;BMP180;52915;53.718;19.946;2023-07-31T15:18:36;99629.80;;;20.16
65765;BMP180;52915;53.718;19.946;2023-07-31T15:23:40;99620.40;;;20.20
65765;BMP180;52915;53.718;19.946;2023-07-31T15:28:57;99620.20;;;20.10
65765;BMP180;52915;53.718;19.946;2023-07-31T15:34:04;99616.40;;;20.10
65765;BMP180;52915;53.718;19.946;2023-07-31T15:39:08;99617.60;;;20.20
65765;BMP180;52915;53.718;19.946;2023-07-31T15:44:12;99607.20;;;20.34
65765;BMP180;52915;53.718;19.946;2023-07-31T15:49:17;99608.60;;;20.60
65765;BMP180;52915;53.718;19.946;2023-07-31T15:54:22;99607.80;;;20.80
65765;BMP180;52915;53.718;19.946;2023-07-31T15:59:26;99605.80;;;21.56
65765;BMP180;52915;53.718;19.946;2023-07-31T16:04:31;99604.60;;;21.00
65765;BMP180;52915;53.718;19.946;2023-07-31T16:09:35;99603.20;;;20.62
65765;BMP180;52915;53.718;19.946;2023-07-31T16:14:39;99600.00;;;20.50
65765;BMP180;52915;53.718;19.946;2023-07-31T16:19:44;99587.80;;;20.40
65765;BMP180;52915;53.718;19.946;2023-07-31T16:24:48;99586.60;;;20.40
65765;BMP180;52915;53.718;19.946;2023-07-31T16:29:53;99577.20;;;20.74
65765;BMP180;52915;53.718;19.946;2023-07-31T16:34:57;99582.60;;;22.54
65765;BMP180;52915;53.718;19.946;2023-07-31T16:40:02;99580.80;;;22.10
65765;BMP180;52915;53.718;19.946;2023-07-31T16:45:07;99588.00;;;22.58
65765;BMP180;52915;53.718;19.946;2023-07-31T16:50:12;99589.20;;;22.10
65765;BMP180;52915;53.718;19.946;2023-07-31T16:55:16;99599.80;;;21.72
65765;BMP180;52915;53.718;19.946;2023-07-31T17:00:21;99600.40;;;21.90
65765;BMP180;52915;53.718;19.946;2023-07-31T17:05:26;99597.20;;;21.30
65765;BMP180;52915;53.718;19.946;2023-07-31T17:10:30;99593.00;;;20.90
65765;BMP180;52915;53.718;19.946;2023-07-31T17:15:34;99590.20;;;20.80
65765;BMP180;52915;53.718;19.946;2023-07-31T17:20:38;99587.80;;;20.60
65765;BMP180;52915;53.718;19.946;2023-07-31T17:25:43;99595.40;;;20.40
65765;BMP180;52915;53.718;19.946;2023-07-31T17:30:50;99591.40;;;20.68
65765;BMP180;52915;53.718;19.946;2023-07-31T17:35:55;99581.80;;;20.80
65765;BMP180;52915;53.718;19.946;2023-07-31T17:41:00;99587.60;;;20.80
65765;BMP180;52915;53.718;19.946;2023-07-31T17:46:05;99585.40;;;20.70
65765;BMP180;52915;53.718;19.946;2023-07-31T17:51:09;99597.80;;;20.54
65765;BMP180;52915;53.718;19.946;2023-07-31T17:56:13;99598.40;;;20.20
65765;BMP180;52915;53.718;19.946;2023-07-31T18:01:18;99593.40;;;20.00
65765;BMP180;52915;53.718;19.946;2023-07-31T18:06:22;99579.00;;;19.80
65765;BMP180;52915;53.718;19.946;2023-07-31T18:11:27;99571.60;;;19.60
65765;BMP180;52915;53.718;19.946;2023-07-31T18:16:34;99567.00;;;19.40
65765;BMP180;52915;53.718;19.946;2023-07-31T18:21:38;99570.00;;;19.20
65765;BMP180;52915;53.718;19.946;2023-07-31T18:26:43;99568.80;;;19.02
65765;BMP180;52915;53.718;19.946;2023-07-31T18:31:48;99571.40;;;18.90
65765;BMP180;52915;53.718;19.946;2023-07-31T18:36:52;99573.00;;;18.80
65765;BMP180;52915;53.718;19.946;2023-07-31T18:41:56;99570.40;;;18.72
65765;BMP180;52915;53.718;19.946;2023-07-31T18:47:02;99569.60;;;18.60
65765;BMP180;52915;53.718;19.946;2023-07-31T18:52:06;99577.40;;;18.60
65765;BMP180;52915;53.718;19.946;2023-07-31T18:57:11;99582.80;;;18.60
65765;BMP180;52915;53.718;19.946;2023-07-31T19:02:15;99587.60;;;18.50
65765;BMP180;52915;53.718;19.946;2023-07-31T19:07:19;99589.00;;;18.50
65765;BMP180;52915;53.718;19.946;2023-07-31T19:12:24;99589.60;;;18.50
65765;BMP180;52915;53.718;19.946;2023-07-31T19:17:29;99585.80;;;18.60
65765;BMP180;52915;53.718;19.946;2023-07-31T19:22:33;99581.20;;;18.50
65765;BMP180;52915;53.718;19.946;2023-07-31T19:27:37;99568.80;;;18.60
65765;BMP180;52915;53.718;19.946;2023-07-31T19:32:42;99554.40;;;18.70
65765;BMP180;52915;53.718;19.946;2023-07-31T19:37:46;99545.40;;;18.70
65765;BMP180;52915;53.718;19.946;2023-07-31T19:42:51;99540.00;;;18.68
65765;BMP180;52915;53.718;19.946;2023-07-31T19:47:58;99543.00;;;18.70
65765;BMP180;52915;53.718;19.946;2023-07-31T19:53:02;99540.00;;;18.80
65765;BMP180;52915;53.718;19.946;2023-07-31T19:58:06;99533.40;;;18.80
65765;BMP180;52915;53.718;19.946;2023-07-31T20:03:11;99528.00;;;18.70
65765;BMP180;52915;53.718;19.946;2023-07-31T20:08:16;99524.80;;;18.68
65765;BMP180;52915;53.718;19.946;2023-07-31T20:13:20;99509.80;;;18.68
65765;BMP180;52915;53.718;19.946;2023-07-31T20:18:25;99511.60;;;18.60
65765;BMP180;52915;53.718;19.946;2023-07-31T20:23:29;99505.40;;;18.60
65765;BMP180;52915;53.718;19.946;2023-07-31T20:28:47;99493.40;;;18.60
65765;BMP180;52915;53.718;19.946;2023-07-31T20:33:52;99487.60;;;18.50
65765;BMP180;52915;53.718;19.946;2023-07-31T20:38:56;99479.80;;;18.50
65765;BMP180;52915;53.718;19.946;2023-07-31T20:44:01;99478.40;;;18.50
65765;BMP180;52915;53.718;19.946;2023-07-31T20:49:05;99475.60;;;18.48
65765;BMP180;52915;53.718;19.946;2023-07-31T20:54:10;99473.40;;;18.50
65765;BMP180;52915;53.718;19.946;2023-07-31T20:59:15;99471.80;;;18.40
65765;BMP180;52915;53.718;19.946;2023-07-31T21:04:19;99467.20;;;18.40
65765;BMP180;52915;53.718;19.946;2023-07-31T21:09:23;99459.80;;;18.40
65765;BMP180;52915;53.718;19.946;2023-07-31T21:14:27;99454.20;;;18.40
65765;BMP180;52915;53.718;19.946;2023-07-31T21:19:33;99452.40;;;18.40
65765;BMP180;52915;53.718;19.946;2023-07-31T21:24:37;99444.60;;;18.40
65765;BMP180;52915;53.718;19.946;2023-07-31T21:29:41;99437.20;;;18.46
65765;BMP180;52915;53.718;19.946;2023-07-31T21:34:47;99432.00;;;18.50
65765;BMP180;52915;53.718;19.946;2023-07-31T21:39:52;99429.00;;;18.40
65765;BMP180;52915;53.718;19.946;2023-07-31T21:44:56;99424.60;;;18.40
65765;BMP180;52915;53.718;19.946;2023-07-31T21:50:00;99427.80;;;18.48
65765;BMP180;52915;53.718;19.946;2023-07-31T21:55:05;99423.80;;;18.50
65765;BMP180;52915;53.718;19.946;2023-07-31T22:00:11;99417.60;;;18.50
65765;BMP180;52915;53.718;19.946;2023-07-31T22:05:15;99418.00;;;18.50
65765;BMP180;52915;53.718;19.946;2023-07-31T22:10:19;99406.20;;;18.60
65765;BMP180;52915;53.718;19.946;2023-07-31T22:15:23;99404.00;;;18.60
65765;BMP180;52915;53.718;19.946;2023-07-31T22:20:28;99392.40;;;18.74
65765;BMP180;52915;53.718;19.946;2023-07-31T22:25:32;99388.60;;;18.80
65765;BMP180;52915;53.718;19.946;2023-07-31T22:30:37;99386.40;;;18.90
65765;BMP180;52915;53.718;19.946;2023-07-31T22:35:41;99381.40;;;19.00
65765;BMP180;52915;53.718;19.946;2023-07-31T22:40:46;99379.20;;;18.90
65765;BMP180;52915;53.718;19.946;2023-07-31T22:45:50;99373.00;;;18.92
65765;BMP180;52915;53.718;19.946;2023-07-31T22:50:55;99368.80;;;19.00
65765;BMP180;52915;53.718;19.946;2023-07-31T22:56:04;99360.20;;;19.00
65765;BMP180;52915;53.718;19.946;2023-07-31T23:01:09;99359.40;;;19.00
65765;BMP180;52915;53.718;19.946;2023-07-31T23:06:14;99352.20;;;19.00
65765;BMP180;52915;53.718;19.946;2023-07-31T23:11:18;99350.40;;;18.92
65765;BMP180;52915;53.718;19.946;2023-07-31T23:16:23;99336.40;;;19.00
65765;BMP180;52915;53.718;19.946;2023-07-31T23:21:27;99334.40;;;19.00
65765;BMP180;52915;53.718;19.946;2023-07-31T23:26:32;99328.00;;;19.00
65765;BMP180;52915;53.718;19.946;2023-07-31T23:31:36;99324.00;;;19.00
65765;BMP180;52915;53.718;19.946;2023-07-31T23:36:41;99323.60;;;19.00
65765;BMP180;52915;53.718;19.946;2023-07-31T23:41:46;99316.20;;;19.00
65765;BMP180;52915;53.718;19.946;2023-07-31T23:46:50;99315.60;;;19.04
65765;BMP180;52915;53.718;19.946;2023-07-31T23:51:55;99312.80;;;19.00
65765;BMP180;52915;53.718;19.946;2023-07-31T23:56:59;99313.80;;;19.04
